sensor_id;sensor_type;location;lat;lon;timestamp;P1;durP1;ratioP1;P2;durP2;ratioP2
16699;SDS011;8466;52.286;21.124;2024-02-23T00:01:24;9.60;;;8.60;;
16699;SDS011;8466;52.286;21.124;2024-02-23T00:03:53;9.40;;;8.50;;
16699;SDS011;8466;52.286;21.124;2024-02-23T00:06:23;9.20;;;8.40;;
16699;SDS011;8466;52.286;21.124;2024-02-23T00:08:54;9.40;;;8.40;;
16699;SDS011;8466;52.286;21.124;2024-02-23T00:11:24;9.47;;;8.47;;
16699;SDS011;8466;52.286;21.124;2024-02-23T00:13:56;9.38;;;8.40;;
16699;SDS011;8466;52.286;21.124;2024-02-23T00:16:25;8.83;;;7.93;;
16699;SDS011;8466;52.286;21.124;2024-02-23T00:18:54;9.37;;;8.47;;
16699;SDS011;8466;52.286;21.124;2024-02-23T00:21:23;10.00;;;9.03;;
16699;SDS011;8466;52.286;21.124;2024-02-23T00:23:52;10.90;;;8.73;;
16699;SDS011;8466;52.286;21.124;2024-02-23T00:26:22;9.83;;;8.90;;
16699;SDS011;8466;52.286;21.124;2024-02-23T00:28:50;8.77;;;7.90;;
16699;SDS011;8466;52.286;21.124;2024-02-23T00:31:21;8.70;;;7.90;;
16699;SDS011;8466;52.286;21.124;2024-02-23T00:33:49;8.90;;;8.10;;
16699;SDS011;8466;52.286;21.124;2024-02-23T00:36:18;8.33;;;7.50;;
16699;SDS011;8466;52.286;21.124;2024-02-23T00:38:47;8.47;;;7.67;;
16699;SDS011;8466;52.286;21.124;2024-02-23T00:41:16;9.80;;;8.63;;
16699;SDS011;8466;52.286;21.124;2024-02-23T00:43:45;12.77;;;8.23;;
16699;SDS011;8466;52.286;21.124;2024-02-23T00:46:14;8.37;;;7.57;;
16699;SDS011;8466;52.286;21.124;2024-02-23T00:48:44;8.63;;;7.83;;
16699;SDS011;8466;52.286;21.124;2024-02-23T00:51:14;8.63;;;7.83;;
16699;SDS011;8466;52.286;21.124;2024-02-23T00:53:42;8.57;;;7.77;;
16699;SDS011;8466;52.286;21.124;2024-02-23T00:56:11;9.20;;;8.30;;
16699;SDS011;8466;52.286;21.124;2024-02-23T00:58:40;8.50;;;7.70;;
16699;SDS011;8466;52.286;21.124;2024-02-23T01:01:09;8.40;;;7.60;;
16699;SDS011;8466;52.286;21.124;2024-02-23T01:03:39;8.60;;;7.80;;
16699;SDS011;8466;52.286;21.124;2024-02-23T01:06:09;9.00;;;8.17;;
16699;SDS011;8466;52.286;21.124;2024-02-23T01:08:38;8.03;;;7.27;;
16699;SDS011;8466;52.286;21.124;2024-02-23T01:11:07;8.77;;;7.97;;
16699;SDS011;8466;52.286;21.124;2024-02-23T01:13:36;9.10;;;8.20;;
16699;SDS011;8466;52.286;21.124;2024-02-23T01:16:05;9.03;;;8.23;;
16699;SDS011;8466;52.286;21.124;2024-02-23T01:18:35;8.27;;;7.57;;
16699;SDS011;8466;52.286;21.124;2024-02-23T01:21:04;8.50;;;7.70;;
16699;SDS011;8466;52.286;21.124;2024-02-23T01:23:35;8.73;;;7.93;;
16699;SDS011;8466;52.286;21.124;2024-02-23T01:26:03;7.83;;;7.13;;
16699;SDS011;8466;52.286;21.124;2024-02-23T01:28:32;8.23;;;7.40;;
16699;SDS011;8466;52.286;21.124;2024-02-23T01:31:01;8.20;;;7.47;;
16699;SDS011;8466;52.286;21.124;2024-02-23T01:33:31;7.80;;;7.10;;
16699;SDS011;8466;52.286;21.124;2024-02-23T01:36:00;8.53;;;7.70;;
16699;SDS011;8466;52.286;21.124;2024-02-23T01:38:29;8.47;;;7.70;;
16699;SDS011;8466;52.286;21.124;2024-02-23T01:41:00;8.30;;;7.50;;
16699;SDS011;8466;52.286;21.124;2024-02-23T01:43:29;7.87;;;7.03;;
16699;SDS011;8466;52.286;21.124;2024-02-23T01:45:58;7.70;;;7.00;;
16699;SDS011;8466;52.286;21.124;2024-02-23T01:48:27;8.60;;;7.80;;
16699;SDS011;8466;52.286;21.124;2024-02-23T01:50:56;7.70;;;6.87;;
16699;SDS011;8466;52.286;21.124;2024-02-23T01:53:26;7.67;;;6.97;;
16699;SDS011;8466;52.286;21.124;2024-02-23T01:55:56;7.90;;;7.10;;
16699;SDS011;8466;52.286;21.124;2024-02-23T01:58:29;7.73;;;7.03;;
16699;SDS011;8466;52.286;21.124;2024-02-23T02:00:59;8.13;;;7.33;;
16699;SDS011;8466;52.286;21.124;2024-02-23T02:03:28;7.87;;;7.17;;
16699;SDS011;8466;52.286;21.124;2024-02-23T02:05:57;7.07;;;6.37;;
16699;SDS011;8466;52.286;21.124;2024-02-23T02:08:26;6.83;;;6.27;;
16699;SDS011;8466;52.286;21.124;2024-02-23T02:10:56;7.83;;;7.13;;
16699;SDS011;8466;52.286;21.124;2024-02-23T02:13:25;7.40;;;6.70;;
16699;SDS011;8466;52.286;21.124;2024-02-23T02:15:57;6.73;;;6.13;;
16699;SDS011;8466;52.286;21.124;2024-02-23T02:18:28;8.17;;;7.00;;
16699;SDS011;8466;52.286;21.124;2024-02-23T02:20:57;7.60;;;6.73;;
16699;SDS011;8466;52.286;21.124;2024-02-23T02:23:26;6.83;;;6.23;;
16699;SDS011;8466;52.286;21.124;2024-02-23T02:25:55;8.63;;;6.70;;
16699;SDS011;8466;52.286;21.124;2024-02-23T02:28:26;7.30;;;6.57;;
16699;SDS011;8466;52.286;21.124;2024-02-23T02:30:55;6.73;;;6.03;;
16699;SDS011;8466;52.286;21.124;2024-02-23T02:33:25;6.83;;;5.97;;
16699;SDS011;8466;52.286;21.124;2024-02-23T02:35:54;6.47;;;5.87;;
16699;SDS011;8466;52.286;21.124;2024-02-23T02:38:23;7.00;;;6.03;;
16699;SDS011;8466;52.286;21.124;2024-02-23T02:40:52;6.50;;;5.90;;
16699;SDS011;8466;52.286;21.124;2024-02-23T02:43:21;6.50;;;5.90;;
16699;SDS011;8466;52.286;21.124;2024-02-23T02:45:50;7.30;;;6.00;;
16699;SDS011;8466;52.286;21.124;2024-02-23T02:48:20;6.20;;;5.60;;
16699;SDS011;8466;52.286;21.124;2024-02-23T02:50:49;7.30;;;6.37;;
16699;SDS011;8466;52.286;21.124;2024-02-23T02:53:20;6.43;;;5.77;;
16699;SDS011;8466;52.286;21.124;2024-02-23T02:55:48;6.70;;;6.07;;
16699;SDS011;8466;52.286;21.124;2024-02-23T02:58:17;5.93;;;5.43;;
16699;SDS011;8466;52.286;21.124;2024-02-23T03:00:46;6.00;;;5.50;;
16699;SDS011;8466;52.286;21.124;2024-02-23T03:03:15;5.87;;;5.37;;
16699;SDS011;8466;52.286;21.124;2024-02-23T03:05:45;6.03;;;5.43;;
16699;SDS011;8466;52.286;21.124;2024-02-23T03:08:14;6.27;;;5.67;;
16699;SDS011;8466;52.286;21.124;2024-02-23T03:10:43;5.90;;;5.40;;
16699;SDS011;8466;52.286;21.124;2024-02-23T03:13:12;6.10;;;5.60;;
16699;SDS011;8466;52.286;21.124;2024-02-23T03:15:42;6.10;;;5.57;;
16699;SDS011;8466;52.286;21.124;2024-02-23T03:18:10;6.73;;;5.33;;
16699;SDS011;8466;52.286;21.124;2024-02-23T03:20:41;5.67;;;5.17;;
16699;SDS011;8466;52.286;21.124;2024-02-23T03:23:12;5.27;;;4.77;;
16699;SDS011;8466;52.286;21.124;2024-02-23T03:25:41;6.97;;;5.30;;
16699;SDS011;8466;52.286;21.124;2024-02-23T03:28:10;5.70;;;4.77;;
16699;SDS011;8466;52.286;21.124;2024-02-23T03:30:38;5.93;;;5.37;;
16699;SDS011;8466;52.286;21.124;2024-02-23T03:33:07;6.80;;;5.10;;
16699;SDS011;8466;52.286;21.124;2024-02-23T03:35:36;4.83;;;4.43;;
16699;SDS011;8466;52.286;21.124;2024-02-23T03:38:05;5.03;;;4.60;;
16699;SDS011;8466;52.286;21.124;2024-02-23T03:40:36;5.83;;;5.30;;
16699;SDS011;8466;52.286;21.124;2024-02-23T03:43:06;5.47;;;4.97;;
16699;SDS011;8466;52.286;21.124;2024-02-23T03:45:34;5.33;;;4.93;;
16699;SDS011;8466;52.286;21.124;2024-02-23T03:48:03;5.77;;;5.27;;
16699;SDS011;8466;52.286;21.124;2024-02-23T03:50:33;5.67;;;5.17;;
16699;SDS011;8466;52.286;21.124;2024-02-23T03:53:02;6.00;;;5.50;;
16699;SDS011;8466;52.286;21.124;2024-02-23T03:55:31;5.50;;;5.00;;
16699;SDS011;8466;52.286;21.124;2024-02-23T03:58:02;5.73;;;5.17;;
16699;SDS011;8466;52.286;21.124;2024-02-23T04:00:31;6.73;;;6.03;;
16699;SDS011;8466;52.286;21.124;2024-02-23T04:03:00;6.63;;;5.67;;
16699;SDS011;8466;52.286;21.124;2024-02-23T04:05:29;6.20;;;5.70;;
16699;SDS011;8466;52.286;21.124;2024-02-23T04:07:58;6.60;;;5.93;;
16699;SDS011;8466;52.286;21.124;2024-02-23T04:10:28;7.13;;;6.53;;
16699;SDS011;8466;52.286;21.124;2024-02-23T04:12:57;6.50;;;5.90;;
16699;SDS011;8466;52.286;21.124;2024-02-23T04:15:28;6.53;;;5.93;;
16699;SDS011;8466;52.286;21.124;2024-02-23T04:17:56;6.70;;;6.13;;
16699;SDS011;8466;52.286;21.124;2024-02-23T04:20:26;6.53;;;5.93;;
16699;SDS011;8466;52.286;21.124;2024-02-23T04:22:55;7.80;;;7.00;;
16699;SDS011;8466;52.286;21.124;2024-02-23T04:25:27;6.20;;;5.70;;
16699;SDS011;8466;52.286;21.124;2024-02-23T04:27:56;7.73;;;7.03;;
16699;SDS011;8466;52.286;21.124;2024-02-23T04:30:25;7.07;;;6.30;;
16699;SDS011;8466;52.286;21.124;2024-02-23T04:32:56;6.87;;;6.17;;
16699;SDS011;8466;52.286;21.124;2024-02-23T04:35:25;7.27;;;6.57;;
16699;SDS011;8466;52.286;21.124;2024-02-23T04:37:54;6.87;;;6.27;;
16699;SDS011;8466;52.286;21.124;2024-02-23T04:40:22;6.33;;;5.67;;
16699;SDS011;8466;52.286;21.124;2024-02-23T04:42:51;6.73;;;6.00;;
16699;SDS011;8466;52.286;21.124;2024-02-23T04:45:20;6.77;;;6.00;;
16699;SDS011;8466;52.286;21.124;2024-02-23T04:47:50;6.57;;;5.97;;
16699;SDS011;8466;52.286;21.124;2024-02-23T04:50:19;6.57;;;5.97;;
16699;SDS011;8466;52.286;21.124;2024-02-23T04:52:49;6.57;;;5.97;;
16699;SDS011;8466;52.286;21.124;2024-02-23T04:55:18;6.93;;;6.22;;
16699;SDS011;8466;52.286;21.124;2024-02-23T04:57:47;6.90;;;6.20;;
16699;SDS011;8466;52.286;21.124;2024-02-23T05:00:16;6.57;;;5.97;;
16699;SDS011;8466;52.286;21.124;2024-02-23T05:02:45;6.88;;;6.20;;
16699;SDS011;8466;52.286;21.124;2024-02-23T05:05:16;7.37;;;6.67;;
16699;SDS011;8466;52.286;21.124;2024-02-23T05:07:45;7.20;;;6.60;;
16699;SDS011;8466;52.286;21.124;2024-02-23T05:10:14;7.67;;;6.97;;
16699;SDS011;8466;52.286;21.124;2024-02-23T05:12:44;7.47;;;6.77;;
16699;SDS011;8466;52.286;21.124;2024-02-23T05:15:12;6.63;;;6.03;;
16699;SDS011;8466;52.286;21.124;2024-02-23T05:17:41;7.07;;;5.87;;
16699;SDS011;8466;52.286;21.124;2024-02-23T05:20:11;6.50;;;5.90;;
16699;SDS011;8466;52.286;21.124;2024-02-23T05:22:42;7.00;;;6.40;;
16699;SDS011;8466;52.286;21.124;2024-02-23T05:25:11;7.60;;;6.90;;
16699;SDS011;8466;52.286;21.124;2024-02-23T05:27:41;5.97;;;5.47;;
16699;SDS011;8466;52.286;21.124;2024-02-23T05:30:11;6.03;;;5.53;;
16699;SDS011;8466;52.286;21.124;2024-02-23T05:32:41;6.80;;;6.20;;
16699;SDS011;8466;52.286;21.124;2024-02-23T05:35:10;6.57;;;5.90;;
16699;SDS011;8466;52.286;21.124;2024-02-23T05:37:40;6.50;;;5.90;;
16699;SDS011;8466;52.286;21.124;2024-02-23T05:40:11;6.88;;;6.35;;
16699;SDS011;8466;52.286;21.124;2024-02-23T05:42:41;6.90;;;6.30;;
16699;SDS011;8466;52.286;21.124;2024-02-23T05:45:10;6.90;;;6.23;;
16699;SDS011;8466;52.286;21.124;2024-02-23T05:47:39;6.33;;;5.73;;
16699;SDS011;8466;52.286;21.124;2024-02-23T05:50:14;6.70;;;6.00;;
16699;SDS011;8466;52.286;21.124;2024-02-23T05:52:44;6.17;;;5.60;;
16699;SDS011;8466;52.286;21.124;2024-02-23T05:55:13;6.53;;;5.70;;
16699;SDS011;8466;52.286;21.124;2024-02-23T05:57:42;6.77;;;5.67;;
16699;SDS011;8466;52.286;21.124;2024-02-23T06:00:12;6.10;;;5.60;;
16699;SDS011;8466;52.286;21.124;2024-02-23T06:02:42;5.87;;;5.40;;
16699;SDS011;8466;52.286;21.124;2024-02-23T06:05:11;5.13;;;4.60;;
16699;SDS011;8466;52.286;21.124;2024-02-23T06:07:45;5.87;;;5.27;;
16699;SDS011;8466;52.286;21.124;2024-02-23T06:10:14;5.50;;;5.00;;
16699;SDS011;8466;52.286;21.124;2024-02-23T06:12:43;5.50;;;5.00;;
16699;SDS011;8466;52.286;21.124;2024-02-23T06:15:12;5.13;;;4.70;;
16699;SDS011;8466;52.286;21.124;2024-02-23T06:17:41;5.47;;;4.93;;
16699;SDS011;8466;52.286;21.124;2024-02-23T06:20:10;5.23;;;4.80;;
16699;SDS011;8466;52.286;21.124;2024-02-23T06:22:39;5.37;;;4.87;;
16699;SDS011;8466;52.286;21.124;2024-02-23T06:25:09;4.93;;;4.43;;
16699;SDS011;8466;52.286;21.124;2024-02-23T06:27:39;5.60;;;5.10;;
16699;SDS011;8466;52.286;21.124;2024-02-23T06:30:08;4.97;;;4.53;;
16699;SDS011;8466;52.286;21.124;2024-02-23T06:32:38;4.80;;;4.40;;
16699;SDS011;8466;52.286;21.124;2024-02-23T06:35:07;5.20;;;4.70;;
16699;SDS011;8466;52.286;21.124;2024-02-23T06:37:39;4.87;;;4.47;;
16699;SDS011;8466;52.286;21.124;2024-02-23T06:40:09;5.03;;;4.47;;
16699;SDS011;8466;52.286;21.124;2024-02-23T06:42:38;4.90;;;4.40;;
16699;SDS011;8466;52.286;21.124;2024-02-23T06:45:07;4.57;;;3.90;;
16699;SDS011;8466;52.286;21.124;2024-02-23T06:47:36;4.80;;;4.37;;
16699;SDS011;8466;52.286;21.124;2024-02-23T06:50:07;4.87;;;4.40;;
16699;SDS011;8466;52.286;21.124;2024-02-23T06:52:36;5.80;;;4.63;;
16699;SDS011;8466;52.286;21.124;2024-02-23T06:55:05;5.77;;;4.83;;
16699;SDS011;8466;52.286;21.124;2024-02-23T06:57:37;5.07;;;4.37;;
16699;SDS011;8466;52.286;21.124;2024-02-23T07:00:07;7.20;;;4.90;;
16699;SDS011;8466;52.286;21.124;2024-02-23T07:02:37;5.03;;;4.53;;
16699;SDS011;8466;52.286;21.124;2024-02-23T07:05:06;6.13;;;4.87;;
16699;SDS011;8466;52.286;21.124;2024-02-23T07:07:35;5.90;;;5.30;;
16699;SDS011;8466;52.286;21.124;2024-02-23T07:10:07;6.70;;;5.43;;
16699;SDS011;8466;52.286;21.124;2024-02-23T07:12:38;5.40;;;4.90;;
16699;SDS011;8466;52.286;21.124;2024-02-23T07:15:07;6.63;;;5.17;;
16699;SDS011;8466;52.286;21.124;2024-02-23T07:17:36;6.30;;;5.20;;
16699;SDS011;8466;52.286;21.124;2024-02-23T07:20:05;6.50;;;5.33;;
16699;SDS011;8466;52.286;21.124;2024-02-23T07:22:35;5.70;;;5.20;;
16699;SDS011;8466;52.286;21.124;2024-02-23T07:25:05;5.50;;;5.00;;
16699;SDS011;8466;52.286;21.124;2024-02-23T07:27:44;5.87;;;4.60;;
16699;SDS011;8466;52.286;21.124;2024-02-23T07:30:13;5.67;;;4.60;;
16699;SDS011;8466;52.286;21.124;2024-02-23T07:32:43;5.83;;;4.50;;
16699;SDS011;8466;52.286;21.124;2024-02-23T07:35:18;5.57;;;4.90;;
16699;SDS011;8466;52.286;21.124;2024-02-23T07:37:49;4.80;;;4.40;;
16699;SDS011;8466;52.286;21.124;2024-02-23T07:40:18;4.80;;;4.30;;
16699;SDS011;8466;52.286;21.124;2024-02-23T07:42:49;6.03;;;4.97;;
16699;SDS011;8466;52.286;21.124;2024-02-23T07:45:18;5.40;;;4.40;;
16699;SDS011;8466;52.286;21.124;2024-02-23T07:47:47;4.87;;;4.37;;
16699;SDS011;8466;52.286;21.124;2024-02-23T07:50:16;5.80;;;4.97;;
16699;SDS011;8466;52.286;21.124;2024-02-23T07:52:46;5.10;;;4.60;;
16699;SDS011;8466;52.286;21.124;2024-02-23T07:55:14;6.07;;;4.27;;
16699;SDS011;8466;52.286;21.124;2024-02-23T07:57:43;6.30;;;4.57;;
16699;SDS011;8466;52.286;21.124;2024-02-23T08:00:14;5.80;;;4.57;;
16699;SDS011;8466;52.286;21.124;2024-02-23T08:02:43;5.28;;;4.78;;
16699;SDS011;8466;52.286;21.124;2024-02-23T08:05:12;6.57;;;4.80;;
16699;SDS011;8466;52.286;21.124;2024-02-23T08:07:42;6.90;;;4.33;;
16699;SDS011;8466;52.286;21.124;2024-02-23T08:10:17;5.13;;;4.70;;
16699;SDS011;8466;52.286;21.124;2024-02-23T08:12:45;5.13;;;4.30;;
16699;SDS011;8466;52.286;21.124;2024-02-23T08:15:16;5.07;;;4.68;;
16699;SDS011;8466;52.286;21.124;2024-02-23T08:17:45;5.73;;;4.73;;
16699;SDS011;8466;52.286;21.124;2024-02-23T08:20:14;5.67;;;5.13;;
16699;SDS011;8466;52.286;21.124;2024-02-23T08:22:43;4.97;;;4.50;;
16699;SDS011;8466;52.286;21.124;2024-02-23T08:25:12;5.30;;;4.77;;
16699;SDS011;8466;52.286;21.124;2024-02-23T08:28:00;5.43;;;4.57;;
16699;SDS011;8466;52.286;21.124;2024-02-23T08:30:31;4.63;;;4.03;;
16699;SDS011;8466;52.286;21.124;2024-02-23T08:33:00;5.13;;;4.63;;
16699;SDS011;8466;52.286;21.124;2024-02-23T08:35:28;5.50;;;5.00;;
16699;SDS011;8466;52.286;21.124;2024-02-23T08:37:58;5.03;;;4.53;;
16699;SDS011;8466;52.286;21.124;2024-02-23T08:40:27;5.03;;;4.53;;
16699;SDS011;8466;52.286;21.124;2024-02-23T08:42:56;6.47;;;5.20;;
16699;SDS011;8466;52.286;21.124;2024-02-23T08:45:26;9.37;;;5.17;;
16699;SDS011;8466;52.286;21.124;2024-02-23T08:47:57;5.70;;;5.10;;
16699;SDS011;8466;52.286;21.124;2024-02-23T08:50:26;6.13;;;5.50;;
16699;SDS011;8466;52.286;21.124;2024-02-23T08:52:55;8.30;;;5.57;;
16699;SDS011;8466;52.286;21.124;2024-02-23T08:55:24;7.80;;;5.93;;
16699;SDS011;8466;52.286;21.124;2024-02-23T08:57:54;6.13;;;5.43;;
16699;SDS011;8466;52.286;21.124;2024-02-23T09:00:23;6.07;;;5.43;;
16699;SDS011;8466;52.286;21.124;2024-02-23T09:02:51;7.47;;;5.40;;
16699;SDS011;8466;52.286;21.124;2024-02-23T09:05:22;8.40;;;5.97;;
16699;SDS011;8466;52.286;21.124;2024-02-23T09:07:52;6.87;;;5.97;;
16699;SDS011;8466;52.286;21.124;2024-02-23T09:10:22;7.30;;;6.37;;
16699;SDS011;8466;52.286;21.124;2024-02-23T09:13:00;6.10;;;5.30;;
16699;SDS011;8466;52.286;21.124;2024-02-23T09:15:30;7.47;;;6.00;;
16699;SDS011;8466;52.286;21.124;2024-02-23T09:17:59;6.03;;;5.43;;
16699;SDS011;8466;52.286;21.124;2024-02-23T09:20:31;5.70;;;5.20;;
16699;SDS011;8466;52.286;21.124;2024-02-23T09:23:00;5.07;;;4.60;;
16699;SDS011;8466;52.286;21.124;2024-02-23T09:25:29;5.33;;;4.83;;
16699;SDS011;8466;52.286;21.124;2024-02-23T09:27:57;5.67;;;5.17;;
16699;SDS011;8466;52.286;21.124;2024-02-23T09:30:27;6.47;;;5.60;;
16699;SDS011;8466;52.286;21.124;2024-02-23T09:32:57;5.43;;;4.93;;
16699;SDS011;8466;52.286;21.124;2024-02-23T09:35:41;5.43;;;4.93;;
16699;SDS011;8466;52.286;21.124;2024-02-23T09:38:23;5.37;;;4.83;;
16699;SDS011;8466;52.286;21.124;2024-02-23T09:41:15;7.90;;;6.87;;
16699;SDS011;8466;52.286;21.124;2024-02-23T09:44:02;7.47;;;5.00;;
16699;SDS011;8466;52.286;21.124;2024-02-23T09:46:45;6.23;;;5.47;;
16699;SDS011;8466;52.286;21.124;2024-02-23T09:49:37;5.83;;;4.90;;
16699;SDS011;8466;52.286;21.124;2024-02-23T09:56:37;5.13;;;4.63;;
16699;SDS011;8466;52.286;21.124;2024-02-23T10:30:01;8.10;;;5.90;;
16699;SDS011;8466;52.286;21.124;2024-02-23T10:32:31;7.97;;;6.50;;
16699;SDS011;8466;52.286;21.124;2024-02-23T10:35:07;8.30;;;6.23;;
16699;SDS011;8466;52.286;21.124;2024-02-23T12:15:46;6.30;;;5.70;;
16699;SDS011;8466;52.286;21.124;2024-02-23T12:19:31;6.97;;;6.10;;
16699;SDS011;8466;52.286;21.124;2024-02-23T12:22:18;8.00;;;7.20;;
16699;SDS011;8466;52.286;21.124;2024-02-23T12:24:52;7.67;;;6.97;;
16699;SDS011;8466;52.286;21.124;2024-02-23T12:27:25;7.73;;;5.90;;
16699;SDS011;8466;52.286;21.124;2024-02-23T12:29:57;8.20;;;6.23;;
16699;SDS011;8466;52.286;21.124;2024-02-23T12:32:27;7.33;;;6.63;;
16699;SDS011;8466;52.286;21.124;2024-02-23T12:35:05;7.47;;;6.77;;
16699;SDS011;8466;52.286;21.124;2024-02-23T12:37:34;6.85;;;6.25;;
16699;SDS011;8466;52.286;21.124;2024-02-23T12:40:10;7.23;;;6.53;;
16699;SDS011;8466;52.286;21.124;2024-02-23T12:42:40;11.10;;;6.53;;
16699;SDS011;8466;52.286;21.124;2024-02-23T12:45:10;6.83;;;6.23;;
16699;SDS011;8466;52.286;21.124;2024-02-23T12:47:39;6.50;;;5.90;;
16699;SDS011;8466;52.286;21.124;2024-02-23T12:50:09;7.53;;;6.73;;
16699;SDS011;8466;52.286;21.124;2024-02-23T12:52:38;7.10;;;6.47;;
16699;SDS011;8466;52.286;21.124;2024-02-23T12:55:07;8.50;;;6.67;;
16699;SDS011;8466;52.286;21.124;2024-02-23T12:57:36;7.87;;;7.10;;
16699;SDS011;8466;52.286;21.124;2024-02-23T13:00:19;7.10;;;6.50;;
16699;SDS011;8466;52.286;21.124;2024-02-23T14:27:00;10.57;;;9.43;;
16699;SDS011;8466;52.286;21.124;2024-02-23T14:29:59;10.30;;;9.40;;
16699;SDS011;8466;52.286;21.124;2024-02-23T14:32:28;12.77;;;11.23;;
16699;SDS011;8466;52.286;21.124;2024-02-23T14:34:59;12.63;;;11.63;;
16699;SDS011;8466;52.286;21.124;2024-02-23T14:37:30;14.07;;;12.23;;
16699;SDS011;8466;52.286;21.124;2024-02-23T14:39:59;14.57;;;13.07;;
16699;SDS011;8466;52.286;21.124;2024-02-23T14:42:28;14.33;;;12.93;;
16699;SDS011;8466;52.286;21.124;2024-02-23T14:45:11;14.90;;;13.40;;
16699;SDS011;8466;52.286;21.124;2024-02-23T14:58:32;21.13;;;18.90;;
16699;SDS011;8466;52.286;21.124;2024-02-23T15:01:01;21.80;;;19.50;;
16699;SDS011;8466;52.286;21.124;2024-02-23T15:28:00;26.23;;;22.27;;
16699;SDS011;8466;52.286;21.124;2024-02-23T15:30:34;21.03;;;18.83;;
16699;SDS011;8466;52.286;21.124;2024-02-23T15:33:28;17.80;;;15.27;;
16699;SDS011;8466;52.286;21.124;2024-02-23T15:36:28;17.50;;;15.43;;
16699;SDS011;8466;52.286;21.124;2024-02-23T15:43:16;25.57;;;22.77;;
16699;SDS011;8466;52.286;21.124;2024-02-23T15:46:42;26.10;;;22.63;;
16699;SDS011;8466;52.286;21.124;2024-02-23T15:57:28;21.43;;;18.73;;
16699;SDS011;8466;52.286;21.124;2024-02-23T16:04:29;12.37;;;11.17;;
16699;SDS011;8466;52.286;21.124;2024-02-23T16:06:59;13.90;;;12.30;;
16699;SDS011;8466;52.286;21.124;2024-02-23T16:09:39;18.03;;;16.13;;
16699;SDS011;8466;52.286;21.124;2024-02-23T16:12:15;27.97;;;22.73;;
16699;SDS011;8466;52.286;21.124;2024-02-23T16:14:47;23.40;;;21.03;;
16699;SDS011;8466;52.286;21.124;2024-02-23T16:17:18;25.03;;;22.23;;
16699;SDS011;8466;52.286;21.124;2024-02-23T16:19:49;27.20;;;24.43;;
16699;SDS011;8466;52.286;21.124;2024-02-23T16:25:37;33.10;;;29.50;;
16699;SDS011;8466;52.286;21.124;2024-02-23T16:28:12;29.80;;;26.90;;
16699;SDS011;8466;52.286;21.124;2024-02-23T16:30:51;24.57;;;22.17;;
16699;SDS011;8466;52.286;21.124;2024-02-23T16:33:28;23.73;;;21.20;;
16699;SDS011;8466;52.286;21.124;2024-02-23T16:35:59;21.40;;;19.20;;
16699;SDS011;8466;52.286;21.124;2024-02-23T16:42:26;25.70;;;23.00;;
16699;SDS011;8466;52.286;21.124;2024-02-23T16:45:42;34.97;;;31.37;;
16699;SDS011;8466;52.286;21.124;2024-02-23T16:48:11;32.60;;;29.30;;
16699;SDS011;8466;52.286;21.124;2024-02-23T16:50:56;30.50;;;27.23;;
16699;SDS011;8466;52.286;21.124;2024-02-23T16:53:29;26.67;;;23.87;;
16699;SDS011;8466;52.286;21.124;2024-02-23T16:56:03;24.60;;;22.10;;
16699;SDS011;8466;52.286;21.124;2024-02-23T16:59:03;26.17;;;22.53;;
16699;SDS011;8466;52.286;21.124;2024-02-23T19:52:59;31.00;;;27.47;;
16699;SDS011;8466;52.286;21.124;2024-02-23T19:55:33;31.23;;;27.93;;
16699;SDS011;8466;52.286;21.124;2024-02-23T19:58:22;45.47;;;35.70;;
16699;SDS011;8466;52.286;21.124;2024-02-23T20:01:13;43.10;;;34.43;;
16699;SDS011;8466;52.286;21.124;2024-02-23T20:04:17;39.37;;;33.60;;
16699;SDS011;8466;52.286;21.124;2024-02-23T20:06:47;43.07;;;34.53;;
16699;SDS011;8466;52.286;21.124;2024-02-23T20:09:17;39.00;;;32.37;;
16699;SDS011;8466;52.286;21.124;2024-02-23T20:11:46;38.93;;;33.60;;
16699;SDS011;8466;52.286;21.124;2024-02-23T20:14:16;36.10;;;31.43;;
16699;SDS011;8466;52.286;21.124;2024-02-23T20:19:54;38.27;;;31.10;;
16699;SDS011;8466;52.286;21.124;2024-02-23T20:22:40;32.60;;;29.07;;
16699;SDS011;8466;52.286;21.124;2024-02-23T20:25:11;35.67;;;30.63;;
16699;SDS011;8466;52.286;21.124;2024-02-23T20:27:40;34.27;;;29.93;;
16699;SDS011;8466;52.286;21.124;2024-02-23T20:30:17;39.73;;;33.23;;
16699;SDS011;8466;52.286;21.124;2024-02-23T20:32:46;37.10;;;31.20;;
16699;SDS011;8466;52.286;21.124;2024-02-23T20:35:26;35.13;;;30.83;;
16699;SDS011;8466;52.286;21.124;2024-02-23T20:38:30;31.67;;;28.30;;
16699;SDS011;8466;52.286;21.124;2024-02-23T20:41:00;30.57;;;27.27;;
16699;SDS011;8466;52.286;21.124;2024-02-23T20:43:29;30.57;;;27.27;;
16699;SDS011;8466;52.286;21.124;2024-02-23T20:45:58;30.60;;;27.40;;
16699;SDS011;8466;52.286;21.124;2024-02-23T20:48:27;29.97;;;26.77;;
16699;SDS011;8466;52.286;21.124;2024-02-23T20:50:56;28.07;;;25.17;;
16699;SDS011;8466;52.286;21.124;2024-02-23T20:53:25;27.83;;;24.93;;
16699;SDS011;8466;52.286;21.124;2024-02-23T20:55:54;26.97;;;24.07;;
16699;SDS011;8466;52.286;21.124;2024-02-23T20:58:25;26.33;;;23.53;;
16699;SDS011;8466;52.286;21.124;2024-02-23T21:00:54;26.23;;;23.47;;
16699;SDS011;8466;52.286;21.124;2024-02-23T21:03:28;26.30;;;23.47;;
16699;SDS011;8466;52.286;21.124;2024-02-23T21:05:59;26.63;;;23.93;;
16699;SDS011;8466;52.286;21.124;2024-02-23T21:12:30;28.00;;;25.03;;
16699;SDS011;8466;52.286;21.124;2024-02-23T21:18:48;29.63;;;26.43;;
16699;SDS011;8466;52.286;21.124;2024-02-23T21:21:19;29.87;;;26.67;;
16699;SDS011;8466;52.286;21.124;2024-02-23T21:23:48;32.00;;;28.83;;
16699;SDS011;8466;52.286;21.124;2024-02-23T21:26:19;34.73;;;31.20;;
16699;SDS011;8466;52.286;21.124;2024-02-23T21:28:50;34.73;;;30.57;;
16699;SDS011;8466;52.286;21.124;2024-02-23T21:31:22;34.10;;;30.43;;
16699;SDS011;8466;52.286;21.124;2024-02-23T21:33:57;31.23;;;27.93;;
16699;SDS011;8466;52.286;21.124;2024-02-23T21:47:32;37.33;;;31.33;;
16699;SDS011;8466;52.286;21.124;2024-02-23T21:50:05;39.13;;;33.07;;
16699;SDS011;8466;52.286;21.124;2024-02-23T21:52:51;37.33;;;31.87;;
16699;SDS011;8466;52.286;21.124;2024-02-23T21:55:29;38.93;;;33.37;;
16699;SDS011;8466;52.286;21.124;2024-02-23T21:58:00;45.37;;;40.47;;
16699;SDS011;8466;52.286;21.124;2024-02-23T22:00:33;46.80;;;40.73;;
16699;SDS011;8466;52.286;21.124;2024-02-23T22:03:03;43.73;;;38.87;;
16699;SDS011;8466;52.286;21.124;2024-02-23T22:05:36;43.07;;;38.40;;
16699;SDS011;8466;52.286;21.124;2024-02-23T22:08:07;47.77;;;41.90;;
16699;SDS011;8466;52.286;21.124;2024-02-23T22:10:36;44.43;;;39.63;;
16699;SDS011;8466;52.286;21.124;2024-02-23T22:16:10;37.20;;;32.57;;
16699;SDS011;8466;52.286;21.124;2024-02-23T22:18:45;38.27;;;33.47;;
16699;SDS011;8466;52.286;21.124;2024-02-23T22:21:16;37.20;;;33.00;;
16699;SDS011;8466;52.286;21.124;2024-02-23T22:23:47;37.93;;;32.93;;
16699;SDS011;8466;52.286;21.124;2024-02-23T22:26:18;41.27;;;34.37;;
16699;SDS011;8466;52.286;21.124;2024-02-23T22:29:01;40.40;;;33.43;;
16699;SDS011;8466;52.286;21.124;2024-02-23T22:31:51;42.83;;;34.37;;
16699;SDS011;8466;52.286;21.124;2024-02-23T22:34:30;40.43;;;33.50;;
16699;SDS011;8466;52.286;21.124;2024-02-23T22:37:16;38.87;;;33.27;;
16699;SDS011;8466;52.286;21.124;2024-02-23T22:40:13;37.57;;;32.07;;
16699;SDS011;8466;52.286;21.124;2024-02-23T22:42:44;44.47;;;33.53;;
16699;SDS011;8466;52.286;21.124;2024-02-23T22:45:29;41.57;;;34.60;;
16699;SDS011;8466;52.286;21.124;2024-02-23T22:48:23;42.67;;;34.27;;
16699;SDS011;8466;52.286;21.124;2024-02-23T22:51:06;44.93;;;35.33;;
16699;SDS011;8466;52.286;21.124;2024-02-23T22:53:47;42.43;;;33.43;;
16699;SDS011;8466;52.286;21.124;2024-02-23T22:56:20;43.00;;;34.90;;
16699;SDS011;8466;52.286;21.124;2024-02-23T22:58:52;41.97;;;35.13;;
16699;SDS011;8466;52.286;21.124;2024-02-23T23:01:21;40.57;;;32.50;;
16699;SDS011;8466;52.286;21.124;2024-02-23T23:03:52;41.10;;;34.33;;